createdAt,value
2017-02-23T00:00:25.203Z,1000.98
2017-02-23T00:02:40.414Z,1000.97
2017-02-23T00:03:22.106Z,1001.04
2017-02-23T00:04:03.752Z,1000.96
2017-02-23T00:04:45.362Z,1000.99
2017-02-23T00:05:27.126Z,1000.97
2017-02-23T00:07:47.958Z,1000.99
2017-02-23T00:10:03.256Z,1000.96
2017-02-23T00:10:45.040Z,1001
2017-02-23T00:11:26.716Z,1000.97
2017-02-23T00:12:08.437Z,1000.96
2017-02-23T00:12:50.248Z,1001
2017-02-23T00:13:31.537Z,1001
2017-02-23T00:14:13.160Z,1000.97
2017-02-23T00:14:54.706Z,1001
2017-02-23T00:15:36.466Z,1000.92
2017-02-23T00:16:18.200Z,1001
2017-02-23T00:16:59.961Z,1000.9
2017-02-23T00:17:41.688Z,1000.93
2017-02-23T00:18:23.405Z,1000.95
2017-02-23T00:19:05.173Z,1000.92
2017-02-23T00:19:46.953Z,1001.05
2017-02-23T00:20:28.733Z,1000.96
2017-02-23T00:22:49.492Z,1001.02
2017-02-23T00:24:44.242Z,1000.9
2017-02-23T00:25:25.920Z,1000.92
2017-02-23T00:26:07.687Z,1000.94
2017-02-23T00:26:49.427Z,1000.95
2017-02-23T00:27:31.194Z,1000.92
2017-02-23T00:28:12.879Z,1000.92
2017-02-23T00:28:54.587Z,1000.94
2017-02-23T00:29:36.356Z,1000.97
2017-02-23T00:30:18.119Z,1000.99
2017-02-23T00:30:59.847Z,1000.94
2017-02-23T00:31:41.590Z,1000.91
2017-02-23T00:32:23.353Z,1001
2017-02-23T00:33:05.167Z,1000.93
2017-02-23T00:33:46.899Z,1000.93
2017-02-23T00:36:07.577Z,1000.9
2017-02-23T00:36:49.287Z,1000.93
2017-02-23T00:37:30.922Z,1000.9
2017-02-23T00:38:12.531Z,1000.91
2017-02-23T00:38:54.258Z,1000.89
2017-02-23T00:39:35.953Z,1000.88
2017-02-23T00:40:17.683Z,1000.89
2017-02-23T00:40:59.421Z,1000.9
2017-02-23T00:41:41.201Z,1000.88
2017-02-23T00:42:22.949Z,1000.89
2017-02-23T00:43:04.695Z,1000.9
2017-02-23T00:43:46.443Z,1000.9
2017-02-23T00:44:28.150Z,1000.95
2017-02-23T00:45:09.904Z,1000.86
2017-02-23T00:45:51.607Z,1000.94
2017-02-23T00:46:33.262Z,1000.87
2017-02-23T00:47:14.993Z,1000.93
2017-02-23T00:49:35.392Z,1000.78
2017-02-23T00:51:29.983Z,1000.83
2017-02-23T00:52:11.629Z,1000.82
2017-02-23T00:54:06.280Z,1000.78
2017-02-23T00:56:00.994Z,1000.75
2017-02-23T00:59:45.007Z,1000.78
2017-02-23T01:00:26.677Z,1000.76
2017-02-23T01:02:47.186Z,1000.85
2017-02-23T01:03:28.843Z,1000.8
2017-02-23T01:04:10.648Z,1000.82
2017-02-23T01:04:52.370Z,1000.82
2017-02-23T01:07:13.112Z,1000.78
2017-02-23T01:07:54.803Z,1000.78
2017-02-23T01:08:36.278Z,1000.78
2017-02-23T01:10:51.467Z,1000.75
2017-02-23T01:13:06.917Z,1000.76
2017-02-23T01:13:48.666Z,1000.78
2017-02-23T01:14:30.412Z,1000.76
2017-02-23T01:15:12.196Z,1000.75
2017-02-23T01:15:53.897Z,1000.75
2017-02-23T01:16:35.649Z,1000.76
2017-02-23T01:17:17.336Z,1000.76
2017-02-23T01:17:59.020Z,1000.72
2017-02-23T01:18:40.428Z,1000.74
2017-02-23T01:19:22.104Z,1000.76
2017-02-23T01:20:03.768Z,1000.72
2017-02-23T01:22:03.777Z,1000.75
2017-02-23T01:22:45.356Z,1000.69
2017-02-23T01:23:27.133Z,1000.77
2017-02-23T01:25:47.518Z,1000.73
2017-02-23T01:26:29.359Z,1000.69
2017-02-23T01:27:10.944Z,1000.75
2017-02-23T01:27:52.708Z,1000.71
2017-02-23T01:28:34.384Z,1000.7
2017-02-23T01:32:39.234Z,1000.7
2017-02-23T01:33:20.952Z,1000.69
2017-02-23T01:34:02.578Z,1000.66
2017-02-23T01:34:44.305Z,1000.66
2017-02-23T01:35:25.994Z,1000.66
2017-02-23T01:36:07.669Z,1000.64
2017-02-23T01:36:49.401Z,1000.66
2017-02-23T01:37:31.106Z,1000.6
2017-02-23T01:38:12.814Z,1000.58
2017-02-23T01:38:54.539Z,1000.57
2017-02-23T01:39:36.230Z,1000.62
2017-02-23T01:41:30.977Z,1000.56
2017-02-23T01:42:12.551Z,1000.58
2017-02-23T01:42:54.266Z,1000.55
2017-02-23T01:43:35.945Z,1000.54
2017-02-23T01:44:17.563Z,1000.54
2017-02-23T01:44:59.255Z,1000.57
2017-02-23T01:45:40.554Z,1000.52
2017-02-23T01:47:34.964Z,1000.53
2017-02-23T01:48:16.759Z,1000.55
2017-02-23T01:48:58.472Z,1000.49
2017-02-23T01:49:40.260Z,1000.53
2017-02-23T01:50:21.621Z,1000.5
2017-02-23T01:51:03.105Z,1000.49
2017-02-23T01:52:57.836Z,1000.46
2017-02-23T01:53:38.998Z,1000.41
2017-02-23T01:54:20.700Z,1000.43
2017-02-23T01:56:51.834Z,1000.41
2017-02-23T01:57:33.644Z,1000.4
2017-02-23T01:59:49.143Z,1000.39
2017-02-23T02:01:49.243Z,1000.37
2017-02-23T02:02:30.531Z,1000.38
2017-02-23T02:03:11.064Z,1000.37
2017-02-23T02:03:51.595Z,1000.4
2017-02-23T02:04:32.131Z,1000.35
2017-02-23T02:05:12.662Z,1000.34
2017-02-23T02:05:53.203Z,1000.25
2017-02-23T02:06:33.741Z,1000.3
2017-02-23T02:07:14.275Z,1000.26
2017-02-23T02:07:54.807Z,1000.31
2017-02-23T02:08:35.328Z,1000.27
2017-02-23T02:09:15.878Z,1000.28
2017-02-23T02:09:56.408Z,1000.29
2017-02-23T02:10:36.939Z,1000.36
2017-02-23T02:11:17.466Z,1000.23
2017-02-23T02:11:58.001Z,1000.23
2017-02-23T02:12:38.530Z,1000.23
2017-02-23T02:13:19.065Z,1000.26
2017-02-23T02:13:59.597Z,1000.25
2017-02-23T02:14:40.130Z,1000.26
2017-02-23T02:15:20.651Z,1000.23
2017-02-23T02:16:01.182Z,1000.22
2017-02-23T02:16:41.711Z,1000.21
2017-02-23T02:17:22.242Z,1000.21
2017-02-23T02:18:02.781Z,1000.17
2017-02-23T02:18:43.306Z,1000.19
2017-02-23T02:19:23.839Z,1000.18
2017-02-23T02:20:04.371Z,1000.14
2017-02-23T02:20:44.914Z,1000.17
2017-02-23T02:21:25.451Z,1000.16
2017-02-23T02:22:05.983Z,1000.08
2017-02-23T02:22:46.508Z,1000.11
2017-02-23T02:23:27.047Z,1000.08
2017-02-23T02:24:07.589Z,1000.07
2017-02-23T02:24:48.118Z,1000.09
2017-02-23T02:25:28.653Z,1000.07
2017-02-23T02:26:09.188Z,1000.06
2017-02-23T02:26:49.746Z,1000.08
2017-02-23T02:27:30.270Z,1000.07
2017-02-23T02:28:10.813Z,1000.06
2017-02-23T02:28:51.341Z,1000.07
2017-02-23T02:29:31.880Z,1000.1
2017-02-23T02:30:12.417Z,1000.02
2017-02-23T02:30:52.954Z,1000.02
2017-02-23T02:31:33.493Z,999.99
2017-02-23T02:32:14.019Z,999.99
2017-02-23T02:32:54.556Z,1000.04
2017-02-23T02:33:35.081Z,999.94
2017-02-23T02:34:15.618Z,999.95
2017-02-23T02:34:56.153Z,999.97
2017-02-23T02:35:36.689Z,999.99
2017-02-23T02:36:17.218Z,999.88
2017-02-23T02:36:57.748Z,999.93
2017-02-23T02:37:38.283Z,999.87
2017-02-23T02:38:18.819Z,999.86
2017-02-23T02:38:59.359Z,999.86
2017-02-23T02:39:39.878Z,999.91
2017-02-23T02:40:20.410Z,999.89
2017-02-23T02:41:00.947Z,999.85
2017-02-23T02:41:41.478Z,999.87
2017-02-23T02:42:22.012Z,999.81
2017-02-23T02:43:02.551Z,999.84
2017-02-23T02:43:43.075Z,999.88
2017-02-23T02:44:23.611Z,999.84
2017-02-23T02:45:04.138Z,999.85
2017-02-23T02:45:44.672Z,999.81
2017-02-23T02:46:25.209Z,999.8
2017-02-23T02:47:05.753Z,999.77
2017-02-23T02:47:46.278Z,999.72
2017-02-23T02:48:26.808Z,999.79
2017-02-23T02:49:07.378Z,999.8
2017-02-23T02:49:47.908Z,999.76
2017-02-23T02:50:28.448Z,999.77
2017-02-23T02:51:08.991Z,999.76
2017-02-23T02:51:49.524Z,999.75
2017-02-23T02:52:30.060Z,999.69
2017-02-23T02:53:10.594Z,999.76
2017-02-23T02:53:51.131Z,999.72
2017-02-23T02:54:31.662Z,999.73
2017-02-23T02:55:12.213Z,999.71
2017-02-23T02:55:52.744Z,999.66
2017-02-23T02:56:33.277Z,999.65
2017-02-23T02:57:13.814Z,999.67
2017-02-23T02:57:54.348Z,999.74
2017-02-23T02:58:34.876Z,999.67
2017-02-23T02:59:15.418Z,999.64
2017-02-23T02:59:55.945Z,999.64
2017-02-23T03:00:36.478Z,999.61
2017-02-23T03:01:17.016Z,999.65
2017-02-23T03:01:57.551Z,999.63
2017-02-23T03:02:38.076Z,999.61
2017-02-23T03:03:18.624Z,999.63
2017-02-23T03:03:59.150Z,999.74
2017-02-23T03:04:39.684Z,999.62
2017-02-23T03:05:20.218Z,999.73
2017-02-23T03:06:00.740Z,999.61
2017-02-23T03:06:41.272Z,999.64
2017-02-23T03:07:21.804Z,999.66
2017-02-23T03:08:02.340Z,999.61
2017-02-23T03:08:42.872Z,999.58
2017-02-23T03:09:23.393Z,999.58
2017-02-23T03:10:03.922Z,999.58
2017-02-23T03:10:44.460Z,999.55
2017-02-23T03:11:25.016Z,999.54
2017-02-23T03:12:05.556Z,999.53
2017-02-23T03:12:46.092Z,999.49
2017-02-23T03:13:26.631Z,999.54
2017-02-23T03:14:07.172Z,999.58
2017-02-23T03:14:47.698Z,999.48
2017-02-23T03:15:28.234Z,999.52
2017-02-23T03:16:08.770Z,999.56
2017-02-23T03:16:49.300Z,999.5
2017-02-23T03:17:29.836Z,999.5
2017-02-23T03:18:10.374Z,999.51
2017-02-23T03:18:50.900Z,999.51
2017-02-23T03:19:31.434Z,999.52
2017-02-23T03:20:11.967Z,999.47
2017-02-23T03:20:52.503Z,999.44
2017-02-23T03:21:33.041Z,999.52
2017-02-23T03:22:13.579Z,999.56
2017-02-23T03:22:54.104Z,999.4
2017-02-23T03:23:34.643Z,999.36
2017-02-23T03:24:15.183Z,999.4
2017-02-23T03:24:55.714Z,999.45
2017-02-23T03:25:36.246Z,999.39
2017-02-23T03:26:16.783Z,999.36
2017-02-23T03:26:57.309Z,999.53
2017-02-23T03:27:37.837Z,999.36
2017-02-23T03:28:18.373Z,999.34
2017-02-23T03:28:58.900Z,999.34
2017-02-23T03:29:39.443Z,999.39
2017-02-23T03:30:19.979Z,999.32
2017-02-23T03:31:00.519Z,999.34
2017-02-23T03:31:41.053Z,999.34
2017-02-23T03:32:21.584Z,999.32
2017-02-23T03:33:02.122Z,999.31
2017-02-23T03:33:42.656Z,999.24
2017-02-23T03:34:23.190Z,999.25
2017-02-23T03:35:03.718Z,999.39
2017-02-23T03:35:44.249Z,999.32
2017-02-23T03:36:24.783Z,999.24
2017-02-23T03:37:05.321Z,999.29
2017-02-23T03:37:45.860Z,999.29
2017-02-23T03:38:26.400Z,999.33
2017-02-23T03:39:06.942Z,999.33
2017-02-23T03:39:47.475Z,999.28
2017-02-23T03:40:28.009Z,999.27
2017-02-23T03:41:08.538Z,999.21
2017-02-23T03:41:49.076Z,999.37
2017-02-23T03:42:29.603Z,999.32
2017-02-23T03:43:10.126Z,999.31
2017-02-23T03:43:50.663Z,999.29
2017-02-23T03:44:31.202Z,999.24
2017-02-23T03:45:11.739Z,999.19
2017-02-23T03:45:52.277Z,999.21
2017-02-23T03:46:32.819Z,999.23
2017-02-23T03:47:13.351Z,999.31
2017-02-23T03:47:53.875Z,999.24
2017-02-23T03:48:34.418Z,999.32
2017-02-23T03:49:14.952Z,999.29
2017-02-23T03:49:55.481Z,999.22
2017-02-23T03:50:36.022Z,999.32
2017-02-23T03:51:16.560Z,999.22
2017-02-23T03:51:57.090Z,999.24
2017-02-23T03:52:37.625Z,999.25
2017-02-23T03:53:18.156Z,999.25
2017-02-23T03:53:58.692Z,999.26
2017-02-23T03:54:39.226Z,999.26
2017-02-23T03:55:19.757Z,999.24
2017-02-23T03:56:00.294Z,999.19
2017-02-23T03:56:40.816Z,999.23
2017-02-23T03:57:21.346Z,999.17
2017-02-23T03:58:01.890Z,999.21
2017-02-23T03:58:42.429Z,999.28
2017-02-23T03:59:22.979Z,999.26
2017-02-23T04:00:03.517Z,999.15
2017-02-23T04:00:44.045Z,999.21
2017-02-23T04:01:24.576Z,999.22
2017-02-23T04:02:05.113Z,999.26
2017-02-23T04:02:45.644Z,999.39
2017-02-23T04:03:26.180Z,999.2
2017-02-23T04:04:06.721Z,999.31
2017-02-23T04:04:47.257Z,999.24
2017-02-23T04:05:27.785Z,999.19
2017-02-23T04:06:08.316Z,999.19
2017-02-23T04:06:48.848Z,999.27
2017-02-23T04:07:29.380Z,999.26
2017-02-23T04:08:09.916Z,999.27
2017-02-23T04:08:50.446Z,999.22
2017-02-23T04:09:30.982Z,999.21
2017-02-23T04:10:11.521Z,999.22
2017-02-23T04:10:52.049Z,999.24
2017-02-23T04:11:32.582Z,999.23
2017-02-23T04:12:13.118Z,999.13
2017-02-23T04:12:53.625Z,999.09
2017-02-23T04:13:34.177Z,999.23
2017-02-23T04:14:14.700Z,999.18
2017-02-23T04:14:55.235Z,999.21
2017-02-23T04:15:35.770Z,999.16
2017-02-23T04:16:16.308Z,999.24
2017-02-23T04:16:56.823Z,999.22
2017-02-23T04:17:37.377Z,999.09
2017-02-23T04:18:17.925Z,999.3
2017-02-23T04:18:58.443Z,999.17
2017-02-23T04:19:39.011Z,999.2
2017-02-23T04:20:19.580Z,999.11
2017-02-23T04:21:00.088Z,999.11
2017-02-23T04:21:40.627Z,999.12
2017-02-23T04:22:21.175Z,999.06
2017-02-23T04:23:01.695Z,999.15
2017-02-23T04:23:42.238Z,999.27
2017-02-23T04:24:22.760Z,999.2
2017-02-23T04:25:03.298Z,999.15
2017-02-23T04:25:43.832Z,999.09
2017-02-23T04:26:24.353Z,999.06
2017-02-23T04:27:04.885Z,999.07
2017-02-23T04:27:45.417Z,999.06
2017-02-23T04:28:25.963Z,999.08
2017-02-23T04:29:06.493Z,999.07
2017-02-23T04:29:47.018Z,999.12
2017-02-23T04:30:27.538Z,999.09
2017-02-23T04:31:08.073Z,999.13
2017-02-23T04:31:48.601Z,999.06
2017-02-23T04:32:29.134Z,999.12
2017-02-23T04:33:09.669Z,999.01
2017-02-23T04:33:50.203Z,998.99
2017-02-23T04:34:30.725Z,999.01
2017-02-23T04:35:11.269Z,999
2017-02-23T04:35:51.803Z,998.99
2017-02-23T04:36:32.330Z,998.96
2017-02-23T04:37:12.848Z,998.92
2017-02-23T04:37:53.367Z,998.94
2017-02-23T04:38:33.906Z,998.97
2017-02-23T04:39:14.448Z,998.95
2017-02-23T04:39:54.988Z,998.89
2017-02-23T04:40:35.522Z,998.95
2017-02-23T04:41:16.042Z,998.87
2017-02-23T04:41:56.601Z,998.95
2017-02-23T04:42:37.123Z,999.06
2017-02-23T04:43:17.659Z,998.92
2017-02-23T04:43:58.202Z,998.85
2017-02-23T04:44:38.724Z,998.88
2017-02-23T04:45:19.252Z,998.9
2017-02-23T04:45:59.777Z,998.94
2017-02-23T04:46:40.318Z,998.82
2017-02-23T04:47:20.852Z,998.88
2017-02-23T04:48:01.392Z,998.88
2017-02-23T04:48:41.920Z,998.83
2017-02-23T04:49:22.456Z,998.8
2017-02-23T04:50:02.987Z,998.9
2017-02-23T04:50:43.526Z,998.84
2017-02-23T04:51:24.059Z,998.92
2017-02-23T04:52:04.598Z,998.97
2017-02-23T04:52:45.150Z,998.84
2017-02-23T04:53:25.698Z,998.9
2017-02-23T04:54:06.229Z,998.72
2017-02-23T04:54:46.754Z,998.82
2017-02-23T04:55:27.317Z,998.75
2017-02-23T04:56:07.834Z,998.82
2017-02-23T04:56:48.381Z,998.77
2017-02-23T04:57:28.916Z,998.82
2017-02-23T04:58:09.462Z,998.83
2017-02-23T04:58:49.979Z,998.78
2017-02-23T04:59:30.517Z,998.73
2017-02-23T05:00:11.068Z,998.77
2017-02-23T05:00:51.587Z,998.75
2017-02-23T05:01:32.137Z,998.77
2017-02-23T05:02:12.718Z,998.75
2017-02-23T05:02:53.281Z,998.71
2017-02-23T05:03:33.812Z,998.7
2017-02-23T05:04:14.344Z,998.74
2017-02-23T05:04:54.895Z,998.72
2017-02-23T05:05:35.436Z,998.69
2017-02-23T05:06:15.968Z,998.69
2017-02-23T05:06:56.514Z,998.71
2017-02-23T05:07:37.071Z,998.7
2017-02-23T05:08:17.605Z,998.71
2017-02-23T05:08:58.167Z,998.64
2017-02-23T05:09:38.689Z,998.61
2017-02-23T05:10:19.234Z,998.65
2017-02-23T05:10:59.756Z,998.66
2017-02-23T05:11:40.283Z,998.67
2017-02-23T05:12:20.832Z,998.62
2017-02-23T05:13:01.337Z,998.64
2017-02-23T05:13:41.885Z,998.58
2017-02-23T05:14:22.409Z,998.53
2017-02-23T05:15:02.954Z,998.58
2017-02-23T05:15:43.500Z,998.59
2017-02-23T05:16:24.038Z,998.52
2017-02-23T05:17:04.578Z,998.54
2017-02-23T05:17:45.093Z,998.6
2017-02-23T05:18:25.615Z,998.53
2017-02-23T05:19:06.150Z,998.54
2017-02-23T05:19:46.690Z,998.58
2017-02-23T05:20:27.238Z,998.51
2017-02-23T05:21:07.784Z,998.43
2017-02-23T05:21:48.334Z,998.41
2017-02-23T05:22:28.875Z,998.51
2017-02-23T05:23:09.429Z,998.37
2017-02-23T05:23:49.962Z,998.33
2017-02-23T05:24:30.496Z,998.39
2017-02-23T05:25:11.038Z,998.36
2017-02-23T05:25:51.568Z,998.41
2017-02-23T05:26:32.110Z,998.3
2017-02-23T05:27:12.794Z,998.29
2017-02-23T05:27:53.336Z,998.29
2017-02-23T05:28:33.897Z,998.28
2017-02-23T05:29:14.439Z,998.25
2017-02-23T05:29:54.973Z,998.26
2017-02-23T05:30:35.543Z,998.23
2017-02-23T05:31:16.069Z,998.2
2017-02-23T05:31:56.601Z,998.15
2017-02-23T05:32:37.148Z,998.15
2017-02-23T05:33:17.673Z,998.18
2017-02-23T05:33:58.203Z,998.17
2017-02-23T05:34:38.741Z,998.12
2017-02-23T05:35:19.270Z,998.17
2017-02-23T05:35:59.801Z,998.13
2017-02-23T05:36:40.347Z,998.13
2017-02-23T05:37:20.865Z,998.02
2017-02-23T05:38:01.394Z,998.09
2017-02-23T05:38:41.917Z,998.07
2017-02-23T05:39:22.440Z,998.04
2017-02-23T05:40:02.950Z,998.07
2017-02-23T05:40:43.486Z,998.09
2017-02-23T05:41:24.002Z,998.05
2017-02-23T05:42:04.553Z,998.05
2017-02-23T05:42:45.070Z,997.99
2017-02-23T05:45:14.771Z,998.02
2017-02-23T05:45:55.284Z,998.07
2017-02-23T05:46:35.794Z,997.96
2017-02-23T05:47:16.323Z,998.01
2017-02-23T05:47:56.846Z,997.97
2017-02-23T05:48:37.378Z,997.95
2017-02-23T05:49:17.915Z,997.95
2017-02-23T05:49:58.437Z,997.93
2017-02-23T05:50:38.962Z,997.92
2017-02-23T05:51:19.494Z,997.92
2017-02-23T05:52:00.027Z,997.87
2017-02-23T05:52:40.560Z,997.93
2017-02-23T05:53:21.086Z,997.82
2017-02-23T05:54:01.609Z,997.89
2017-02-23T05:54:42.127Z,997.8
2017-02-23T05:55:22.663Z,997.78
2017-02-23T05:56:03.179Z,997.81
2017-02-23T05:56:43.702Z,997.75
2017-02-23T05:57:24.243Z,997.81
2017-02-23T05:58:04.765Z,997.72
2017-02-23T05:58:45.285Z,997.78
2017-02-23T05:59:25.799Z,997.78
2017-02-23T06:00:06.309Z,997.74
2017-02-23T06:00:46.844Z,997.8
2017-02-23T06:01:27.369Z,997.72
2017-02-23T06:02:08.148Z,997.69
2017-02-23T06:02:48.810Z,997.69
2017-02-23T06:03:29.357Z,997.69
2017-02-23T06:04:09.912Z,997.68
2017-02-23T06:04:50.443Z,997.65
2017-02-23T06:05:31.003Z,997.64
2017-02-23T06:06:11.505Z,997.64
2017-02-23T06:06:52.069Z,997.68
2017-02-23T06:07:32.602Z,997.65
2017-02-23T06:08:13.366Z,997.69
2017-02-23T06:08:53.900Z,997.66
2017-02-23T06:09:34.393Z,997.66
2017-02-23T06:10:14.905Z,997.7
2017-02-23T06:10:55.611Z,997.65
2017-02-23T06:11:36.116Z,997.66
2017-02-23T06:12:16.609Z,997.63
2017-02-23T06:12:57.151Z,997.6
2017-02-23T06:13:37.689Z,997.61
2017-02-23T06:14:18.228Z,997.63
2017-02-23T06:14:58.813Z,997.62
2017-02-23T06:15:39.458Z,997.62
2017-02-23T06:16:19.997Z,997.61
2017-02-23T06:17:00.578Z,997.55
2017-02-23T06:17:41.096Z,997.55
2017-02-23T06:18:21.613Z,997.56
2017-02-23T06:19:02.102Z,997.56
2017-02-23T06:19:42.618Z,997.54
2017-02-23T06:20:23.152Z,997.67
2017-02-23T06:21:03.667Z,997.59
2017-02-23T06:21:44.221Z,997.64
2017-02-23T06:22:24.754Z,997.6
2017-02-23T06:23:05.295Z,997.58
2017-02-23T06:23:45.833Z,997.73
2017-02-23T06:24:26.380Z,997.57
2017-02-23T06:25:06.915Z,997.45
2017-02-23T06:25:47.461Z,997.62
2017-02-23T06:26:27.972Z,997.52
2017-02-23T06:27:08.503Z,997.5
2017-02-23T06:27:49.041Z,997.53
2017-02-23T06:28:29.557Z,997.54
2017-02-23T06:29:10.075Z,997.52
2017-02-23T06:29:50.610Z,997.51
2017-02-23T06:30:31.144Z,997.53
2017-02-23T06:31:11.684Z,997.49
2017-02-23T06:31:52.212Z,997.56
2017-02-23T06:32:32.727Z,997.54
2017-02-23T06:33:13.264Z,997.5
2017-02-23T06:33:53.817Z,997.56
2017-02-23T06:34:34.340Z,997.52
2017-02-23T06:35:14.877Z,997.49
2017-02-23T06:35:55.412Z,997.51
2017-02-23T06:36:35.976Z,997.47
2017-02-23T06:37:16.508Z,997.5
2017-02-23T06:37:57.033Z,997.51
2017-02-23T06:38:37.536Z,997.5
2017-02-23T06:39:18.058Z,997.43
2017-02-23T06:39:58.579Z,997.48
2017-02-23T06:40:39.124Z,997.52
2017-02-23T06:41:19.638Z,997.53
2017-02-23T06:42:00.175Z,997.51
2017-02-23T06:42:40.730Z,997.46
2017-02-23T06:43:21.277Z,997.49
2017-02-23T06:44:01.782Z,997.53
2017-02-23T06:44:42.308Z,997.52
2017-02-23T06:45:22.885Z,997.51
2017-02-23T06:46:03.416Z,997.47
2017-02-23T06:46:43.951Z,997.49
2017-02-23T06:47:24.499Z,997.5
2017-02-23T06:48:05.042Z,997.46
2017-02-23T06:48:45.549Z,997.49
2017-02-23T06:49:26.112Z,997.45
2017-02-23T06:50:06.643Z,997.53
2017-02-23T06:50:47.159Z,997.49
2017-02-23T06:51:27.697Z,997.46
2017-02-23T06:52:08.236Z,997.48
2017-02-23T06:52:48.894Z,997.46
2017-02-23T06:53:29.633Z,997.39
2017-02-23T06:54:10.164Z,997.39
2017-02-23T06:54:50.689Z,997.39
2017-02-23T06:55:31.216Z,997.38
2017-02-23T06:56:11.759Z,997.4
2017-02-23T06:56:52.285Z,997.41
2017-02-23T06:57:32.800Z,997.36
2017-02-23T06:58:13.321Z,997.45
2017-02-23T06:58:53.856Z,997.41
2017-02-23T06:59:34.394Z,997.44
2017-02-23T07:00:14.926Z,997.43
2017-02-23T07:00:55.447Z,997.39
2017-02-23T07:01:35.980Z,997.46
2017-02-23T07:02:16.518Z,997.45
2017-02-23T07:02:57.118Z,997.47
2017-02-23T07:03:37.653Z,997.49
2017-02-23T07:04:18.189Z,997.41
2017-02-23T07:04:58.721Z,997.44
2017-02-23T07:05:39.264Z,997.34
2017-02-23T07:06:19.803Z,997.5
2017-02-23T07:07:00.341Z,997.32
2017-02-23T07:07:40.879Z,997.35
2017-02-23T07:08:21.411Z,997.33
2017-02-23T07:09:01.937Z,997.32
2017-02-23T07:09:42.471Z,997.31
2017-02-23T07:10:23.010Z,997.28
2017-02-23T07:11:03.543Z,997.31
2017-02-23T07:11:44.081Z,997.35
2017-02-23T07:12:24.612Z,997.32
2017-02-23T07:13:05.201Z,997.31
2017-02-23T07:13:45.720Z,997.35
2017-02-23T07:14:26.273Z,997.31
2017-02-23T07:15:06.809Z,997.33
2017-02-23T07:15:47.342Z,997.23
2017-02-23T07:16:27.880Z,997.26
2017-02-23T07:17:08.422Z,997.28
2017-02-23T07:17:48.961Z,997.28
2017-02-23T07:18:29.488Z,997.32
2017-02-23T07:19:10.015Z,997.23
2017-02-23T07:19:50.547Z,997.19
2017-02-23T07:20:31.085Z,997.2
2017-02-23T07:21:11.624Z,997.18
2017-02-23T07:21:52.164Z,997.19
2017-02-23T07:22:32.696Z,997.21
2017-02-23T07:23:13.222Z,997.19
2017-02-23T07:23:53.756Z,997.22
2017-02-23T07:24:34.300Z,997.19
2017-02-23T07:25:14.822Z,997.23
2017-02-23T07:25:55.366Z,997.21
2017-02-23T07:26:37.888Z,997.28
2017-02-23T07:27:18.434Z,997.19
2017-02-23T07:27:58.971Z,997.22
2017-02-23T07:28:39.506Z,997.21
2017-02-23T07:29:20.041Z,997.15
2017-02-23T07:30:00.572Z,997.19
2017-02-23T07:30:41.107Z,997.11
2017-02-23T07:31:21.644Z,997.1
2017-02-23T07:32:02.181Z,997.16
2017-02-23T07:32:42.718Z,997.08
2017-02-23T07:33:23.252Z,997.11
2017-02-23T07:34:03.787Z,997.15
2017-02-23T07:34:44.320Z,997.08
2017-02-23T07:35:24.856Z,997.14
2017-02-23T07:36:05.389Z,997.07
2017-02-23T07:36:45.926Z,997.1
2017-02-23T07:37:26.461Z,997.09
2017-02-23T07:38:07.001Z,997.03
2017-02-23T07:38:47.530Z,997.04
2017-02-23T07:39:28.111Z,996.99
2017-02-23T07:40:08.596Z,997.03
2017-02-23T07:40:49.129Z,996.95
2017-02-23T07:41:29.664Z,996.91
2017-02-23T07:42:10.222Z,996.91
2017-02-23T07:42:50.732Z,996.88
2017-02-23T07:43:31.270Z,996.9
2017-02-23T07:44:11.791Z,996.89
2017-02-23T07:44:52.341Z,996.89
2017-02-23T07:45:32.867Z,996.91
2017-02-23T07:46:13.404Z,996.87
2017-02-23T07:46:53.933Z,996.84
2017-02-23T07:47:34.473Z,996.91
2017-02-23T07:48:15.006Z,996.93
2017-02-23T07:48:55.542Z,996.9
2017-02-23T07:49:36.079Z,996.85
2017-02-23T07:50:16.615Z,996.82
2017-02-23T07:50:57.157Z,996.86
2017-02-23T07:51:37.688Z,996.8
2017-02-23T07:52:18.219Z,996.81
2017-02-23T07:52:58.760Z,996.85
2017-02-23T07:53:39.300Z,996.87
2017-02-23T07:54:19.835Z,996.75
2017-02-23T07:55:00.373Z,996.68
2017-02-23T07:55:40.899Z,996.62
2017-02-23T07:56:21.433Z,996.66
2017-02-23T07:57:01.971Z,996.7
2017-02-23T07:57:42.506Z,996.63
2017-02-23T07:58:23.040Z,996.68
2017-02-23T07:59:03.578Z,996.56
2017-02-23T07:59:44.114Z,996.6
2017-02-23T08:00:24.641Z,996.57
2017-02-23T08:01:05.173Z,996.56
2017-02-23T08:01:45.711Z,996.56
2017-02-23T08:02:26.242Z,996.61
2017-02-23T08:03:06.771Z,996.5
2017-02-23T08:03:47.296Z,996.46
2017-02-23T08:04:27.837Z,996.49
2017-02-23T08:05:08.377Z,996.45
2017-02-23T08:05:48.913Z,996.45
2017-02-23T08:06:29.454Z,996.49
2017-02-23T08:07:09.992Z,996.46
2017-02-23T08:07:50.522Z,996.47
2017-02-23T08:08:31.051Z,996.49
2017-02-23T08:09:11.583Z,996.47
2017-02-23T08:09:52.112Z,996.52
2017-02-23T08:10:32.643Z,996.48
2017-02-23T08:11:13.175Z,996.48
2017-02-23T08:11:53.718Z,996.52
2017-02-23T08:12:34.246Z,996.55
2017-02-23T08:13:14.781Z,996.52
2017-02-23T08:13:55.317Z,996.49
2017-02-23T08:14:35.861Z,996.54
2017-02-23T08:15:16.405Z,996.59
2017-02-23T08:15:56.928Z,996.54
2017-02-23T08:16:37.469Z,996.53
2017-02-23T08:17:18.003Z,996.5
2017-02-23T08:17:58.535Z,996.5
2017-02-23T08:18:39.075Z,996.5
2017-02-23T08:19:19.609Z,996.51
2017-02-23T08:20:00.165Z,996.53
2017-02-23T08:20:40.680Z,996.58
2017-02-23T08:21:21.219Z,996.49
2017-02-23T08:22:01.755Z,996.54
2017-02-23T08:22:42.295Z,996.62
2017-02-23T08:23:22.827Z,996.51
2017-02-23T08:24:03.360Z,996.53
2017-02-23T08:24:43.901Z,996.52
2017-02-23T08:25:24.438Z,996.51
2017-02-23T08:26:04.974Z,996.51
2017-02-23T08:26:45.508Z,996.48
2017-02-23T08:27:26.043Z,996.48
2017-02-23T08:28:06.585Z,996.47
2017-02-23T08:28:47.121Z,996.56
2017-02-23T08:29:27.641Z,996.49
2017-02-23T08:30:08.175Z,996.46
2017-02-23T08:30:48.696Z,996.43
2017-02-23T08:31:29.234Z,996.45
2017-02-23T08:32:09.775Z,996.42
2017-02-23T08:32:50.329Z,996.45
2017-02-23T08:33:30.862Z,996.43
2017-02-23T08:34:11.402Z,996.39
2017-02-23T08:34:51.942Z,996.33
2017-02-23T08:35:32.483Z,996.28
2017-02-23T08:36:13.020Z,996.33
2017-02-23T08:36:53.564Z,996.35
2017-02-23T08:37:34.132Z,996.36
2017-02-23T08:38:14.666Z,996.36
2017-02-23T08:38:55.202Z,996.33
2017-02-23T08:39:35.741Z,996.29
2017-02-23T08:40:16.297Z,996.29
2017-02-23T08:40:56.811Z,996.26
2017-02-23T08:41:37.350Z,996.23
2017-02-23T08:42:17.888Z,996.3
2017-02-23T08:42:58.412Z,996.24
2017-02-23T08:43:38.957Z,996.27
2017-02-23T08:44:19.501Z,996.23
2017-02-23T08:45:00.034Z,996.16
2017-02-23T08:45:40.573Z,996.19
2017-02-23T08:46:21.117Z,996.17
2017-02-23T08:47:01.639Z,996.13
2017-02-23T08:47:42.181Z,996.1
2017-02-23T08:48:22.710Z,996.07
2017-02-23T08:49:03.243Z,996.06
2017-02-23T08:49:43.774Z,996
2017-02-23T08:50:24.305Z,996.06
2017-02-23T08:51:04.869Z,996.14
2017-02-23T08:51:45.398Z,996.1
2017-02-23T08:52:25.924Z,996.14
2017-02-23T08:53:06.465Z,996.03
2017-02-23T08:53:46.999Z,996.01
2017-02-23T08:54:27.520Z,996
2017-02-23T08:55:08.060Z,996.03
2017-02-23T08:55:48.594Z,996
2017-02-23T08:56:29.123Z,995.91
2017-02-23T08:57:09.669Z,995.91
2017-02-23T08:57:50.217Z,995.93
2017-02-23T08:58:30.747Z,995.95
2017-02-23T08:59:11.283Z,995.96
2017-02-23T08:59:51.807Z,995.96
2017-02-23T09:00:32.332Z,995.93
2017-02-23T09:01:12.869Z,995.94
2017-02-23T09:01:53.405Z,995.95
2017-02-23T09:02:33.926Z,995.89
2017-02-23T09:03:14.468Z,995.86
2017-02-23T09:03:54.996Z,995.84
2017-02-23T09:04:35.527Z,995.74
2017-02-23T09:05:16.071Z,995.78
2017-02-23T09:05:56.602Z,995.7
2017-02-23T09:06:37.132Z,995.74
2017-02-23T09:07:17.667Z,995.69